createdAt,value
2019-04-22T00:00:36.779Z,37.90
2019-04-22T00:03:07.395Z,37.90
2019-04-22T00:05:58.808Z,38.40
2019-04-22T00:08:29.616Z,38.50
2019-04-22T00:11:07.927Z,38.80
2019-04-22T00:13:40.773Z,39.40
2019-04-22T00:15:59.181Z,39.20
2019-04-22T00:18:50.338Z,39.70
2019-04-22T00:21:04.673Z,40.30
2019-04-22T00:23:32.983Z,40.30
2019-04-22T00:28:39.329Z,41.00
2019-04-22T00:31:19.418Z,41.40
2019-04-22T00:33:48.432Z,40.70
2019-04-22T00:36:16.618Z,41.30
2019-04-22T00:38:51.568Z,41.50
2019-04-22T00:41:23.548Z,41.30
2019-04-22T00:43:56.761Z,41.20
2019-04-22T00:46:27.310Z,42.00
2019-04-22T00:49:33.093Z,42.00
2019-04-22T00:51:28.562Z,42.40
2019-04-22T00:53:57.855Z,42.50
2019-04-22T00:56:24.721Z,42.60
2019-04-22T00:58:56.579Z,42.90
2019-04-22T01:01:24.948Z,42.30
2019-04-22T01:04:04.539Z,42.10
2019-04-22T01:06:25.849Z,42.10
2019-04-22T01:08:57.919Z,42.40
2019-04-22T01:11:30.045Z,42.90
2019-04-22T01:13:55.299Z,43.00
2019-04-22T01:16:28.111Z,43.00
2019-04-22T01:19:00.426Z,42.80
2019-04-22T01:21:36.104Z,43.20
2019-04-22T01:23:59.762Z,43.60
2019-04-22T01:26:25.365Z,43.60
2019-04-22T01:28:53.583Z,43.60
2019-04-22T01:31:18.134Z,43.60
2019-04-22T01:33:49.790Z,43.70
2019-04-22T01:36:30.218Z,43.70
2019-04-22T01:39:13.511Z,43.90
2019-04-22T01:41:49.694Z,44.20
2019-04-22T01:44:31.371Z,44.10
2019-04-22T01:46:47.625Z,44.30
2019-04-22T01:49:16.005Z,44.40
2019-04-22T01:51:54.787Z,44.60
2019-04-22T01:56:47.961Z,44.80
2019-04-22T01:59:05.139Z,44.60
2019-04-22T02:04:17.766Z,44.60
2019-04-22T02:06:48.267Z,44.90
2019-04-22T02:09:26.930Z,45.00
2019-04-22T02:14:20.352Z,45.20
2019-04-22T02:16:49.825Z,45.30
2019-04-22T02:19:22.785Z,45.60
2019-04-22T02:21:51.602Z,45.90
2019-04-22T02:24:31.246Z,45.80
2019-04-22T02:26:48.345Z,46.00
2019-04-22T02:29:27.018Z,45.70
2019-04-22T02:32:02.862Z,45.90
2019-04-22T02:36:56.349Z,46.00
2019-04-22T02:39:27.209Z,45.80
2019-04-22T02:41:54.780Z,45.60
2019-04-22T02:44:42.621Z,45.60
2019-04-22T02:47:36.039Z,45.70
2019-04-22T02:49:31.267Z,45.80
2019-04-22T02:51:53.944Z,46.00
2019-04-22T02:54:44.679Z,46.50
2019-04-22T02:57:10.133Z,46.80
2019-04-22T02:59:31.037Z,46.80
2019-04-22T03:04:34.906Z,46.30
2019-04-22T03:07:00.905Z,46.20
2019-04-22T03:09:35.093Z,46.50
2019-04-22T03:12:11.323Z,46.70
2019-04-22T03:14:38.138Z,46.90
2019-04-22T03:17:09.964Z,47.10
2019-04-22T03:22:08.207Z,47.90
2019-04-22T03:24:38.172Z,48.40
2019-04-22T03:27:08.249Z,48.40
2019-04-22T03:30:18.761Z,48.60
2019-04-22T03:32:53.799Z,48.50
2019-04-22T03:37:32.404Z,48.30
2019-04-22T03:40:09.374Z,48.20
2019-04-22T03:42:46.763Z,48.40
2019-04-22T03:45:13.951Z,48.20
2019-04-22T03:47:38.729Z,48.50
2019-04-22T03:52:29.359Z,48.60
2019-04-22T03:55:07.719Z,49.00
2019-04-22T03:57:50.194Z,49.20
2019-04-22T04:00:30.306Z,48.90
2019-04-22T04:05:19.118Z,48.00
2019-04-22T04:07:57.702Z,48.50
2019-04-22T04:10:25.601Z,47.90
2019-04-22T04:12:49.355Z,48.30
2019-04-22T04:15:14.050Z,47.90
2019-04-22T04:17:50.497Z,48.10
2019-04-22T04:22:55.979Z,47.80
2019-04-22T04:25:32.579Z,48.20
2019-04-22T04:30:30.269Z,48.60
2019-04-22T04:35:25.636Z,49.00
2019-04-22T04:37:52.509Z,49.00
2019-04-22T04:50:12.368Z,49.40
2019-04-22T04:53:02.189Z,49.30
2019-04-22T04:55:28.568Z,49.40
2019-04-22T05:05:20.796Z,48.60
2019-04-22T05:17:55.506Z,48.60
2019-04-22T05:23:01.066Z,47.80
2019-04-22T05:25:26.968Z,48.00
2019-04-22T05:27:45.392Z,47.60
2019-04-22T05:35:23.096Z,46.30
2019-04-22T05:37:50.384Z,46.70
2019-04-22T05:42:52.353Z,46.90
2019-04-22T05:47:52.298Z,46.50
2019-04-22T05:50:18.691Z,46.00
2019-04-22T05:52:57.337Z,45.70
2019-04-22T05:55:51.104Z,45.60
2019-04-22T05:57:59.696Z,45.20
2019-04-22T06:03:13.382Z,44.60
2019-04-22T06:05:32.078Z,43.80
2019-04-22T06:08:02.420Z,43.50
2019-04-22T06:10:42.313Z,43.30
2019-04-22T06:13:03.472Z,43.00
2019-04-22T06:15:36.255Z,42.60
2019-04-22T06:18:16.209Z,42.40
2019-04-22T06:20:51.810Z,42.00
2019-04-22T06:23:18.678Z,42.30
2019-04-22T06:25:57.553Z,41.80
2019-04-22T06:28:23.677Z,42.20
2019-04-22T06:30:50.300Z,41.50
2019-04-22T06:33:22.561Z,41.70
2019-04-22T06:35:52.026Z,42.10
2019-04-22T06:38:32.925Z,42.00
2019-04-22T06:40:54.060Z,43.30
2019-04-22T06:43:36.885Z,42.90
2019-04-22T06:45:58.448Z,42.50
2019-04-22T06:48:23.722Z,42.00
2019-04-22T06:50:53.942Z,41.90
2019-04-22T06:53:25.050Z,41.50
2019-04-22T06:56:00.268Z,41.40
2019-04-22T06:58:39.867Z,41.10
2019-04-22T07:00:55.768Z,40.60
2019-04-22T07:06:27.889Z,40.60
2019-04-22T07:11:18.776Z,40.20
2019-04-22T07:16:31.511Z,39.00
2019-04-22T07:18:56.766Z,38.10
2019-04-22T07:21:44.010Z,37.30
2019-04-22T07:24:07.097Z,37.00
2019-04-22T07:26:31.962Z,36.60
2019-04-22T07:29:01.291Z,36.10
2019-04-22T07:31:34.415Z,35.80
2019-04-22T07:34:16.488Z,34.70
2019-04-22T07:39:09.739Z,34.00
2019-04-22T07:41:37.912Z,34.00
2019-04-22T07:46:50.034Z,33.40
2019-04-22T07:49:35.231Z,33.10
2019-04-22T07:51:44.657Z,33.30
2019-04-22T07:54:24.836Z,32.70
2019-04-22T07:56:50.779Z,31.80
2019-04-22T08:01:55.934Z,30.20
2019-04-22T08:04:49.986Z,29.90
2019-04-22T08:07:10.949Z,29.90
2019-04-22T08:12:02.070Z,27.20
2019-04-22T08:14:40.832Z,25.90
2019-04-22T08:19:41.995Z,26.30
2019-04-22T08:22:14.356Z,26.00
2019-04-22T08:24:51.249Z,24.70
2019-04-22T08:27:15.356Z,24.80
2019-04-22T08:30:00.507Z,24.50
2019-04-22T08:32:22.288Z,24.50
2019-04-22T08:34:56.159Z,24.40
2019-04-22T08:40:01.641Z,23.90
2019-04-22T08:42:50.191Z,24.70
2019-04-22T08:47:30.952Z,23.90
2019-04-22T08:50:10.938Z,24.20
2019-04-22T08:52:35.427Z,24.40
2019-04-22T08:55:11.256Z,24.30
2019-04-22T08:58:04.849Z,24.10
2019-04-22T09:00:12.967Z,23.80
2019-04-22T09:02:49.532Z,23.80
2019-04-22T09:05:33.548Z,23.60
2019-04-22T09:07:48.584Z,23.70
2019-04-22T09:10:17.159Z,23.60
2019-04-22T09:12:56.817Z,23.20
2019-04-22T09:15:18.295Z,22.60
2019-04-22T09:18:00.447Z,22.50
2019-04-22T09:20:30.171Z,22.90
2019-04-22T09:23:02.705Z,22.50
2019-04-22T09:25:29.780Z,21.80
2019-04-22T09:27:57.128Z,21.70
2019-04-22T09:30:37.092Z,21.90
2019-04-22T09:33:04.333Z,21.60
2019-04-22T09:35:31.527Z,21.50
2019-04-22T09:38:16.948Z,20.80
2019-04-22T09:40:46.854Z,21.40
2019-04-22T09:43:07.559Z,20.40
2019-04-22T09:45:34.366Z,19.90
2019-04-22T09:48:08.331Z,19.80
2019-04-22T09:50:38.343Z,19.00
2019-04-22T09:53:10.061Z,18.70
2019-04-22T09:55:34.600Z,17.70
2019-04-22T09:58:16.298Z,16.70
2019-04-22T10:01:18.654Z,16.00
2019-04-22T10:03:44.915Z,16.30
2019-04-22T16:12:37.721Z,11.30
2019-04-22T16:15:03.117Z,12.00
2019-04-22T16:17:30.742Z,11.40
2019-04-22T16:19:59.614Z,11.20
2019-04-22T16:22:30.979Z,11.10
2019-04-22T16:25:02.393Z,11.40
2019-04-22T16:27:32.126Z,11.90
2019-04-22T16:30:01.405Z,11.60
2019-04-22T16:32:31.792Z,11.70
2019-04-22T16:35:00.944Z,11.60
2019-04-22T16:37:30.591Z,11.80
2019-04-22T16:40:00.856Z,12.00
2019-04-22T16:42:38.063Z,12.40
2019-04-22T16:45:01.676Z,12.90
2019-04-22T16:47:31.358Z,13.20
2019-04-22T16:50:01.660Z,13.70
2019-04-22T16:52:32.055Z,14.10
2019-04-22T16:55:01.111Z,14.50
2019-04-22T16:57:30.091Z,14.80
2019-04-22T17:00:00.414Z,15.10
2019-04-22T17:02:50.148Z,15.50
2019-04-22T17:05:37.776Z,15.90
2019-04-22T17:08:08.233Z,16.30
2019-04-22T17:10:37.830Z,16.50
2019-04-22T17:13:13.072Z,16.80
2019-04-22T17:15:37.626Z,16.90
2019-04-22T17:18:07.400Z,17.10
2019-04-22T17:20:36.307Z,17.50
2019-04-22T17:23:05.438Z,17.50
2019-04-22T17:25:34.624Z,17.60
2019-04-22T17:28:05.709Z,17.70
2019-04-22T17:30:36.009Z,17.90
2019-04-22T17:33:05.299Z,18.00
2019-04-22T17:35:36.041Z,18.50
2019-04-22T17:38:19.183Z,18.50
2019-04-22T17:40:53.727Z,18.60
2019-04-22T17:43:36.148Z,18.90
2019-04-22T17:46:10.777Z,19.20
2019-04-22T17:48:53.574Z,19.40
2019-04-22T17:51:38.177Z,19.10
2019-04-22T17:53:57.976Z,19.40
2019-04-22T17:56:29.475Z,19.50
2019-04-22T17:58:57.370Z,19.70
2019-04-22T18:01:29.564Z,19.80
2019-04-22T18:03:43.656Z,20.00
2019-04-22T18:06:35.060Z,20.30
2019-04-22T18:09:03.641Z,20.70
2019-04-22T18:11:40.195Z,21.20
2019-04-22T18:14:24.383Z,21.30
2019-04-22T18:16:37.084Z,21.50
2019-04-22T18:19:04.168Z,21.60
2019-04-22T18:21:32.084Z,21.80
2019-04-22T18:23:56.447Z,22.00
2019-04-22T18:26:32.285Z,22.40
2019-04-22T18:29:07.564Z,22.90
2019-04-22T18:31:29.769Z,23.00
2019-04-22T18:34:01.960Z,23.30
2019-04-22T18:36:33.297Z,23.60
2019-04-22T18:39:15.862Z,23.90
2019-04-22T18:41:42.938Z,24.30
2019-04-22T18:44:11.501Z,24.30
2019-04-22T18:46:37.089Z,24.20
2019-04-22T18:49:08.233Z,24.80
2019-04-22T18:51:52.950Z,24.90
2019-04-22T18:54:22.807Z,25.20
2019-04-22T18:56:50.787Z,25.60
2019-04-22T18:59:14.436Z,25.50
2019-04-22T19:01:37.761Z,25.90
2019-04-22T19:04:14.113Z,26.20
2019-04-22T19:07:17.187Z,26.50
2019-04-22T19:09:38.362Z,26.50
2019-04-22T19:12:15.442Z,26.80
2019-04-22T19:14:43.941Z,26.60
2019-04-22T19:17:10.910Z,26.30
2019-04-22T19:22:02.504Z,26.60
2019-04-22T19:24:30.661Z,26.80
2019-04-22T19:27:02.206Z,27.00
2019-04-22T19:29:39.252Z,27.20
2019-04-22T19:32:05.179Z,27.20
2019-04-22T19:34:38.195Z,27.30
2019-04-22T19:37:11.485Z,27.50
2019-04-22T19:39:31.028Z,27.40
2019-04-22T19:42:16.757Z,27.60
2019-04-22T19:44:37.723Z,27.60
2019-04-22T19:47:25.121Z,27.60
2019-04-22T19:49:47.743Z,27.80
2019-04-22T19:54:43.988Z,27.90
2019-04-22T19:57:04.808Z,28.10
2019-04-22T19:59:46.484Z,28.00
2019-04-22T20:02:25.393Z,27.90
2019-04-22T20:05:07.690Z,28.00
2019-04-22T20:07:48.719Z,28.30
2019-04-22T20:10:17.226Z,28.40
2019-04-22T20:12:42.505Z,28.50
2019-04-22T20:15:14.252Z,28.50
2019-04-22T20:18:11.438Z,28.50
2019-04-22T20:20:25.505Z,28.50
2019-04-22T20:22:45.182Z,28.50
2019-04-22T20:25:08.864Z,28.50
2019-04-22T20:27:50.196Z,28.30
2019-04-22T20:30:23.734Z,28.40
2019-04-22T20:33:06.882Z,28.70
2019-04-22T20:35:43.530Z,28.50
2019-04-22T20:38:16.431Z,28.80
2019-04-22T20:40:41.375Z,28.70
2019-04-22T20:43:26.830Z,28.90
2019-04-22T20:45:45.955Z,28.80
2019-04-22T20:48:06.040Z,28.90
2019-04-22T20:50:48.543Z,28.80
2019-04-22T20:53:18.411Z,29.00
2019-04-22T20:55:48.530Z,29.00
2019-04-22T20:58:15.367Z,29.20
2019-04-22T21:00:41.872Z,29.70
2019-04-22T21:03:08.598Z,29.30
2019-04-22T21:05:40.573Z,29.20
2019-04-22T21:08:24.172Z,29.20
2019-04-22T21:10:43.202Z,29.40
2019-04-22T21:13:18.121Z,29.50
2019-04-22T21:16:00.761Z,29.70
2019-04-22T21:18:19.453Z,29.90
2019-04-22T21:21:03.842Z,30.00
2019-04-22T21:23:29.213Z,30.10
2019-04-22T21:26:05.259Z,30.10
2019-04-22T21:28:41.816Z,30.30
2019-04-22T21:31:10.679Z,30.70
2019-04-22T21:33:42.822Z,30.70
2019-04-22T21:36:28.333Z,30.90
2019-04-22T21:38:49.531Z,30.90
2019-04-22T21:41:20.440Z,31.90
2019-04-22T21:43:52.612Z,31.50
2019-04-22T21:46:32.374Z,31.50
2019-04-22T21:48:59.960Z,31.80
2019-04-22T21:51:39.700Z,32.70
2019-04-22T21:54:11.922Z,31.80
2019-04-22T21:59:12.561Z,32.30
2019-04-22T22:01:52.859Z,32.60
2019-04-22T22:04:25.228Z,33.00
2019-04-22T22:06:51.205Z,32.90
2019-04-22T22:09:39.435Z,33.20
2019-04-22T22:12:07.249Z,33.30
2019-04-22T22:14:50.022Z,33.30
2019-04-22T22:17:22.391Z,33.90
2019-04-22T22:19:54.486Z,33.90
2019-04-22T22:22:48.330Z,33.70
2019-04-22T22:25:30.170Z,34.20
2019-04-22T22:28:01.445Z,34.20
2019-04-22T22:33:10.446Z,34.20
2019-04-22T22:35:47.313Z,34.00
2019-04-22T22:38:22.779Z,34.80
2019-04-22T22:40:41.960Z,34.10
2019-04-22T22:43:24.824Z,34.20
2019-04-22T22:46:03.199Z,34.50
2019-04-22T22:48:48.139Z,34.60
2019-04-22T22:51:19.876Z,35.50
2019-04-22T22:53:51.232Z,34.90
2019-04-22T22:56:39.245Z,35.70
2019-04-22T22:59:03.075Z,35.00
2019-04-22T23:01:39.562Z,35.50
2019-04-22T23:04:17.235Z,35.60
2019-04-22T23:06:53.199Z,35.80
2019-04-22T23:09:12.953Z,35.80
2019-04-22T23:14:14.584Z,35.90
2019-04-22T23:16:37.444Z,36.10
2019-04-22T23:19:04.471Z,36.20
2019-04-22T23:21:39.678Z,36.40
2019-04-22T23:24:23.752Z,37.00
2019-04-22T23:27:03.198Z,37.00
2019-04-22T23:29:30.629Z,37.10
2019-04-22T23:32:04.480Z,37.30
2019-04-22T23:34:38.796Z,37.20
2019-04-22T23:37:12.253Z,37.20
2019-04-22T23:39:54.497Z,37.30
2019-04-22T23:42:21.772Z,37.30
2019-04-22T23:44:50.677Z,37.40
2019-04-22T23:47:29.296Z,37.50
2019-04-22T23:50:01.409Z,37.70
2019-04-22T23:52:49.411Z,38.40
2019-04-22T23:55:18.700Z,39.10
2019-04-22T23:57:52.833Z,39.90
